createdAt,value
2023-01-19T00:00:39.074Z,2.42
2023-01-19T00:03:25.177Z,2.41
2023-01-19T00:05:52.011Z,2.40
2023-01-19T00:08:18.947Z,2.40
2023-01-19T00:10:50.529Z,2.42
2023-01-19T00:13:17.677Z,2.43
2023-01-19T00:15:44.595Z,2.43
2023-01-19T00:18:11.664Z,2.46
2023-01-19T00:20:39.807Z,2.42
2023-01-19T00:23:07.405Z,2.38
2023-01-19T00:25:34.622Z,2.30
2023-01-19T00:28:01.942Z,2.19
2023-01-19T00:30:29.563Z,2.13
2023-01-19T00:32:56.395Z,2.07
2023-01-19T00:35:23.122Z,2.05
2023-01-19T00:37:50.275Z,2.02
2023-01-19T00:40:17.731Z,2.02
2023-01-19T00:42:45.388Z,1.99
2023-01-19T00:45:21.907Z,1.96
2023-01-19T00:47:56.215Z,1.99
2023-01-19T00:50:24.839Z,1.99
2023-01-19T00:52:53.346Z,1.97
2023-01-19T00:55:20.318Z,1.96
2023-01-19T00:57:47.230Z,1.95
2023-01-19T01:00:16.943Z,1.95
2023-01-19T01:02:48.671Z,1.96
2023-01-19T01:05:16.192Z,1.97
2023-01-19T01:07:46.478Z,2.02
2023-01-19T01:10:19.576Z,2.08
2023-01-19T01:12:54.822Z,2.13
2023-01-19T01:15:29.308Z,2.19
2023-01-19T01:17:56.259Z,2.22
2023-01-19T01:20:29.671Z,2.23
2023-01-19T01:22:57.370Z,2.25
2023-01-19T01:25:26.433Z,2.27
2023-01-19T01:27:54.073Z,2.29
2023-01-19T01:30:21.416Z,2.30
2023-01-19T01:32:48.525Z,2.31
2023-01-19T01:35:15.743Z,2.31
2023-01-19T01:37:42.804Z,2.30
2023-01-19T01:40:15.258Z,2.30
2023-01-19T01:42:42.372Z,2.30
2023-01-19T01:45:27.672Z,2.33
2023-01-19T01:48:00.890Z,2.35
2023-01-19T01:50:31.361Z,2.38
2023-01-19T01:53:06.512Z,2.40
2023-01-19T01:55:40.809Z,2.43
2023-01-19T01:58:09.954Z,2.45
2023-01-19T02:00:57.253Z,2.44
2023-01-19T02:03:25.584Z,2.42
2023-01-19T02:05:58.582Z,2.42
2023-01-19T02:08:53.740Z,2.42
2023-01-19T02:11:39.844Z,2.42
2023-01-19T02:14:06.994Z,2.43
2023-01-19T02:16:35.720Z,2.44
2023-01-19T02:19:08.155Z,2.47
2023-01-19T02:21:48.620Z,2.50
2023-01-19T02:24:15.655Z,2.55
2023-01-19T02:26:46.273Z,2.58
2023-01-19T02:29:15.828Z,2.58
2023-01-19T02:31:43.110Z,2.58
2023-01-19T02:34:12.346Z,2.57
2023-01-19T02:36:41.568Z,2.54
2023-01-19T02:39:10.578Z,2.49
2023-01-19T02:41:45.702Z,2.48
2023-01-19T02:44:14.673Z,2.45
2023-01-19T02:46:41.636Z,2.47
2023-01-19T02:49:08.432Z,2.44
2023-01-19T02:51:35.708Z,2.44
2023-01-19T02:54:11.676Z,2.43
2023-01-19T02:56:45.789Z,2.42
2023-01-19T02:59:32.893Z,2.40
2023-01-19T03:02:14.076Z,2.37
2023-01-19T03:04:53.002Z,2.36
2023-01-19T03:07:35.014Z,2.34
2023-01-19T03:10:20.069Z,2.32
2023-01-19T03:12:54.172Z,2.31
2023-01-19T03:15:40.502Z,2.28
2023-01-19T03:18:10.411Z,2.27
2023-01-19T03:20:39.587Z,2.29
2023-01-19T03:23:09.915Z,2.29
2023-01-19T03:25:42.152Z,2.30
2023-01-19T03:28:09.576Z,2.31
2023-01-19T03:30:41.825Z,2.30
2023-01-19T03:33:16.323Z,2.30
2023-01-19T03:35:48.684Z,2.28
2023-01-19T03:38:19.048Z,2.27
2023-01-19T03:40:47.015Z,2.27
2023-01-19T03:43:16.052Z,2.31
2023-01-19T03:45:43.750Z,2.33
2023-01-19T03:48:10.932Z,2.34
2023-01-19T03:50:37.844Z,2.35
2023-01-19T03:53:12.522Z,2.37
2023-01-19T03:55:42.896Z,2.38
2023-01-19T03:58:09.592Z,2.37
2023-01-19T04:00:37.300Z,2.36
2023-01-19T04:03:05.410Z,2.35
2023-01-19T04:05:32.581Z,2.34
2023-01-19T04:08:00.180Z,2.31
2023-01-19T04:10:27.259Z,2.28
2023-01-19T04:12:58.385Z,2.28
2023-01-19T04:15:25.724Z,2.29
2023-01-19T04:17:52.973Z,2.29
2023-01-19T04:20:21.049Z,2.30
2023-01-19T04:22:49.059Z,2.30
2023-01-19T04:25:15.970Z,2.29
2023-01-19T04:27:42.802Z,2.24
2023-01-19T04:30:10.387Z,2.23
2023-01-19T04:32:37.056Z,2.21
2023-01-19T04:35:04.331Z,2.19
2023-01-19T04:37:30.971Z,2.16
2023-01-19T04:39:57.602Z,2.14
2023-01-19T04:42:24.249Z,2.14
2023-01-19T04:44:52.031Z,2.15
2023-01-19T04:47:19.135Z,2.16
2023-01-19T04:49:45.775Z,2.17
2023-01-19T04:52:12.557Z,2.17
2023-01-19T04:54:39.396Z,2.16
2023-01-19T04:57:06.140Z,2.13
2023-01-19T04:59:33.135Z,2.12
2023-01-19T05:02:00.083Z,2.12
2023-01-19T05:04:27.091Z,2.12
2023-01-19T05:06:53.925Z,2.11
2023-01-19T05:09:20.821Z,2.08
2023-01-19T05:11:47.480Z,2.05
2023-01-19T05:14:14.089Z,2.02
2023-01-19T05:16:41.431Z,2.00
2023-01-19T05:19:08.445Z,1.99
2023-01-19T05:21:35.207Z,1.97
2023-01-19T05:24:02.429Z,1.98
2023-01-19T05:26:29.081Z,1.98
2023-01-19T05:28:56.143Z,1.98
2023-01-19T05:31:22.995Z,1.96
2023-01-19T05:33:49.901Z,1.93
2023-01-19T05:36:16.780Z,1.89
2023-01-19T05:38:43.514Z,1.85
2023-01-19T05:41:10.224Z,1.81
2023-01-19T05:43:37.421Z,1.79
2023-01-19T05:46:04.937Z,1.79
2023-01-19T05:48:32.010Z,1.80
2023-01-19T05:50:59.847Z,1.78
2023-01-19T05:53:28.018Z,1.79
2023-01-19T05:56:07.111Z,1.80
2023-01-19T05:58:35.263Z,1.82
2023-01-19T06:01:04.920Z,1.82
2023-01-19T06:03:33.456Z,1.83
2023-01-19T06:06:00.600Z,1.81
2023-01-19T06:08:27.587Z,1.81
2023-01-19T06:10:54.297Z,1.79
2023-01-19T06:13:21.109Z,1.76
2023-01-19T06:15:48.003Z,1.72
2023-01-19T06:18:14.742Z,1.67
2023-01-19T06:20:41.620Z,1.64
2023-01-19T06:23:09.955Z,1.62
2023-01-19T06:25:36.944Z,1.61
2023-01-19T06:28:03.883Z,1.58
2023-01-19T06:30:30.702Z,1.59
2023-01-19T06:32:57.613Z,1.61
2023-01-19T06:35:24.612Z,1.59
2023-01-19T06:37:52.478Z,1.58
2023-01-19T06:40:19.733Z,1.59
2023-01-19T06:42:48.213Z,1.60
2023-01-19T06:45:14.978Z,1.59
2023-01-19T06:47:41.997Z,1.57
2023-01-19T06:50:09.457Z,1.56
2023-01-19T06:52:41.676Z,1.55
2023-01-19T06:55:12.235Z,1.57
2023-01-19T06:57:39.747Z,1.60
2023-01-19T07:00:08.498Z,1.64
2023-01-19T07:02:36.377Z,1.65
2023-01-19T07:05:06.045Z,1.66
2023-01-19T07:07:32.827Z,1.66
2023-01-19T07:09:59.493Z,1.67
2023-01-19T07:12:26.513Z,1.67
2023-01-19T07:14:53.355Z,1.67
2023-01-19T07:17:20.193Z,1.67
2023-01-19T07:19:47.136Z,1.67
2023-01-19T07:22:14.147Z,1.65
2023-01-19T07:24:41.144Z,1.68
2023-01-19T07:27:08.093Z,1.68
2023-01-19T07:29:34.814Z,1.69
2023-01-19T07:32:01.734Z,1.72
2023-01-19T07:34:28.804Z,1.75
2023-01-19T07:36:56.156Z,1.77
2023-01-19T07:39:22.808Z,1.76
2023-01-19T07:41:49.388Z,1.78
2023-01-19T07:44:16.186Z,1.81
2023-01-19T07:46:43.178Z,1.82
2023-01-19T07:49:10.924Z,1.82
2023-01-19T07:51:37.621Z,1.85
2023-01-19T07:54:04.280Z,1.87
2023-01-19T07:56:33.652Z,1.86
2023-01-19T07:59:00.708Z,1.84
2023-01-19T08:01:29.068Z,1.84
2023-01-19T08:03:56.347Z,1.87
2023-01-19T08:06:26.589Z,1.90
2023-01-19T08:08:53.532Z,1.92
2023-01-19T08:11:20.861Z,1.95
2023-01-19T08:13:47.600Z,1.93
2023-01-19T08:16:14.439Z,1.83
2023-01-19T08:18:41.926Z,1.77
2023-01-19T08:21:08.737Z,1.75
2023-01-19T08:23:35.584Z,1.75
2023-01-19T08:26:37.340Z,1.80
2023-01-19T08:29:06.330Z,1.85
2023-01-19T08:31:33.615Z,1.86
2023-01-19T08:34:01.784Z,1.87
2023-01-19T08:36:29.014Z,1.87
2023-01-19T08:38:55.839Z,1.90
2023-01-19T08:41:22.578Z,1.92
2023-01-19T08:43:49.636Z,1.95
2023-01-19T08:46:16.915Z,1.96
2023-01-19T08:48:50.168Z,1.98
2023-01-19T08:51:17.546Z,2.01
2023-01-19T08:53:44.696Z,2.03
2023-01-19T08:56:13.412Z,2.04
2023-01-19T08:58:42.573Z,2.02
2023-01-19T09:01:10.353Z,2.03
2023-01-19T09:03:37.197Z,2.05
2023-01-19T09:06:07.555Z,2.03
2023-01-19T09:08:34.492Z,2.02
2023-01-19T09:11:01.974Z,2.07
2023-01-19T09:13:28.747Z,2.12
2023-01-19T09:15:55.451Z,2.18
2023-01-19T09:18:22.446Z,2.17
2023-01-19T09:20:49.988Z,2.17
2023-01-19T09:23:19.605Z,2.21
2023-01-19T09:25:47.570Z,2.26
2023-01-19T09:28:16.952Z,2.29
2023-01-19T09:30:44.719Z,2.30
2023-01-19T09:33:14.751Z,2.34
2023-01-19T09:35:42.673Z,2.40
2023-01-19T09:38:10.072Z,2.46
2023-01-19T09:40:43.172Z,2.52
2023-01-19T09:43:31.805Z,2.57
2023-01-19T09:46:02.137Z,2.57
2023-01-19T09:49:07.929Z,2.62
2023-01-19T09:51:39.084Z,2.65
2023-01-19T09:54:13.871Z,2.68
2023-01-19T09:56:41.935Z,2.77
2023-01-19T09:59:29.697Z,2.85
2023-01-19T10:02:12.722Z,2.95
2023-01-19T10:04:51.011Z,3.07
2023-01-19T10:07:40.781Z,3.16
2023-01-19T10:10:20.287Z,3.28
2023-01-19T10:12:59.800Z,3.35
2023-01-19T10:15:40.429Z,3.41
2023-01-19T10:18:12.610Z,3.46
2023-01-19T10:20:59.281Z,3.55
2023-01-19T10:23:34.512Z,3.56
2023-01-19T10:26:09.882Z,3.59
2023-01-19T10:28:38.360Z,3.69
2023-01-19T10:31:07.085Z,3.77
2023-01-19T10:33:34.707Z,3.88
2023-01-19T10:36:29.468Z,4.00
2023-01-19T10:38:57.374Z,4.16
2023-01-19T10:41:30.015Z,4.30
2023-01-19T10:44:04.770Z,4.44
2023-01-19T10:46:43.073Z,4.57
2023-01-19T10:49:38.431Z,4.70
2023-01-19T10:52:28.815Z,4.83
2023-01-19T10:54:56.143Z,4.98
2023-01-19T10:57:34.189Z,5.11
2023-01-19T11:00:01.576Z,5.23
2023-01-19T11:02:30.775Z,5.38
2023-01-19T11:05:20.589Z,5.45
2023-01-19T11:07:47.709Z,5.61
2023-01-19T11:10:20.170Z,5.76
2023-01-19T11:13:12.153Z,5.88
2023-01-19T11:16:03.618Z,5.99
2023-01-19T11:18:34.102Z,6.11
2023-01-19T11:21:06.323Z,6.21
2023-01-19T11:23:41.492Z,6.28
2023-01-19T11:26:15.631Z,6.36
2023-01-19T11:28:47.357Z,6.45
2023-01-19T11:31:14.181Z,6.51
2023-01-19T11:33:47.685Z,6.58
2023-01-19T11:36:20.586Z,6.70
2023-01-19T11:38:50.058Z,6.82
2023-01-19T11:41:46.123Z,6.92
2023-01-19T11:44:21.364Z,7.03
2023-01-19T11:46:59.451Z,7.21
2023-01-19T11:49:43.760Z,7.27
2023-01-19T11:52:22.953Z,7.34
2023-01-19T11:55:30.764Z,7.44
2023-01-19T11:57:58.525Z,7.56
2023-01-19T12:00:37.043Z,7.69
2023-01-19T12:03:21.154Z,7.85
2023-01-19T12:05:54.691Z,8.01
2023-01-19T12:08:26.745Z,8.11
2023-01-19T12:10:56.897Z,7.94
2023-01-19T12:13:25.861Z,7.76
2023-01-19T12:16:09.944Z,7.82
2023-01-19T12:18:43.262Z,7.88
2023-01-19T12:21:10.255Z,7.91
2023-01-19T12:23:48.758Z,7.99
2023-01-19T12:26:15.702Z,8.05
2023-01-19T12:28:46.749Z,8.14
2023-01-19T12:31:19.287Z,8.20
2023-01-19T12:33:46.781Z,8.06
2023-01-19T12:36:16.730Z,7.80
2023-01-19T12:38:52.294Z,7.60
2023-01-19T12:41:29.043Z,7.48
2023-01-19T12:44:11.300Z,7.59
2023-01-19T12:46:45.398Z,7.77
2023-01-19T12:49:33.058Z,8.00
2023-01-19T12:52:17.001Z,8.05
2023-01-19T12:54:49.785Z,8.13
2023-01-19T12:57:25.928Z,8.30
2023-01-19T13:00:02.968Z,8.30
2023-01-19T13:02:42.633Z,8.11
2023-01-19T13:05:11.665Z,8.05
2023-01-19T13:08:10.868Z,7.89
2023-01-19T13:11:12.650Z,7.68
2023-01-19T13:13:41.578Z,7.69
2023-01-19T13:16:21.670Z,7.71
2023-01-19T13:19:05.715Z,7.82
2023-01-19T13:21:45.075Z,7.87
2023-01-19T13:24:17.229Z,7.86
2023-01-19T13:26:50.126Z,8.03
2023-01-19T13:29:39.771Z,8.29
2023-01-19T13:32:18.947Z,8.60
2023-01-19T13:34:51.187Z,8.73
2023-01-19T13:37:21.462Z,8.79
2023-01-19T13:39:52.555Z,9.07
2023-01-19T13:42:38.200Z,9.36
2023-01-19T13:45:25.859Z,9.49
2023-01-19T13:47:55.156Z,9.55
2023-01-19T13:50:26.336Z,9.54
2023-01-19T13:52:55.091Z,9.54
2023-01-19T13:55:23.210Z,9.47
2023-01-19T13:57:51.068Z,9.36
2023-01-19T14:00:19.833Z,9.15
2023-01-19T14:03:12.592Z,8.94
2023-01-19T14:05:41.652Z,8.79
2023-01-19T14:08:10.669Z,8.64
2023-01-19T14:10:46.649Z,8.53
2023-01-19T14:13:16.803Z,8.42
2023-01-19T14:15:44.876Z,8.28
2023-01-19T14:18:17.584Z,7.97
2023-01-19T14:21:07.482Z,7.71
2023-01-19T14:23:54.890Z,7.49
2023-01-19T14:26:55.829Z,7.19
2023-01-19T14:29:29.545Z,6.86
2023-01-19T14:32:11.122Z,6.64
2023-01-19T14:34:45.761Z,6.47
2023-01-19T14:37:26.310Z,6.32
2023-01-19T14:40:10.562Z,6.16
2023-01-19T14:42:46.003Z,6.01
2023-01-19T14:45:37.642Z,5.82
2023-01-19T14:48:11.739Z,5.62
2023-01-19T14:50:42.829Z,5.39
2023-01-19T14:53:16.623Z,5.11
2023-01-19T14:55:51.887Z,4.91
2023-01-19T14:58:21.047Z,4.69
2023-01-19T15:00:49.179Z,4.56
2023-01-19T15:03:16.347Z,4.46
2023-01-19T15:05:45.954Z,4.40
2023-01-19T15:08:18.558Z,4.32
2023-01-19T15:10:45.887Z,4.22
2023-01-19T15:13:20.117Z,4.13
2023-01-19T15:15:49.156Z,4.02
2023-01-19T15:18:20.411Z,3.95
2023-01-19T15:20:47.183Z,3.81
2023-01-19T15:23:13.918Z,3.78
2023-01-19T15:25:40.689Z,3.80
2023-01-19T15:28:18.794Z,3.77
2023-01-19T15:30:45.820Z,3.75
2023-01-19T15:33:24.162Z,3.69
2023-01-19T15:35:52.305Z,3.56
2023-01-19T15:38:19.306Z,3.45
2023-01-19T15:40:51.163Z,3.35
2023-01-19T15:43:18.703Z,3.30
2023-01-19T15:46:00.366Z,3.25
2023-01-19T15:48:27.250Z,3.25
2023-01-19T15:50:54.248Z,3.20
2023-01-19T15:53:23.552Z,3.20
2023-01-19T15:55:52.292Z,3.20
2023-01-19T15:58:20.385Z,3.19
2023-01-19T16:00:55.649Z,3.19
2023-01-19T16:03:23.727Z,3.20
2023-01-19T16:05:50.834Z,3.18
2023-01-19T16:08:17.807Z,3.13
2023-01-19T16:10:44.677Z,3.06
2023-01-19T16:13:11.773Z,2.94
2023-01-19T16:15:39.674Z,2.85
2023-01-19T16:18:06.554Z,2.80
2023-01-19T16:20:33.872Z,2.78
2023-01-19T16:23:14.570Z,2.79
2023-01-19T16:25:42.821Z,2.79
2023-01-19T16:28:09.908Z,2.74
2023-01-19T16:30:36.613Z,2.73
2023-01-19T16:33:04.766Z,2.76
2023-01-19T16:35:31.708Z,2.78
2023-01-19T16:37:58.401Z,2.74
2023-01-19T16:40:25.562Z,2.71
2023-01-19T16:42:52.200Z,2.68
2023-01-19T16:45:18.877Z,2.63
2023-01-19T16:47:49.800Z,2.61
2023-01-19T16:50:16.668Z,2.61
2023-01-19T16:52:44.425Z,2.59
2023-01-19T16:55:11.665Z,2.65
2023-01-19T16:57:39.139Z,2.72
2023-01-19T17:00:08.705Z,2.77
2023-01-19T17:02:36.069Z,2.79
2023-01-19T17:05:03.448Z,2.84
2023-01-19T17:07:30.139Z,2.91
2023-01-19T17:09:56.934Z,2.92
2023-01-19T17:12:23.821Z,2.92
2023-01-19T17:14:50.621Z,2.84
2023-01-19T17:17:17.484Z,2.69
2023-01-19T17:19:44.807Z,2.54
2023-01-19T17:22:12.809Z,2.44
2023-01-19T17:24:42.022Z,2.39
2023-01-19T17:27:09.259Z,2.36
2023-01-19T17:29:36.394Z,2.31
2023-01-19T17:32:03.826Z,2.35
2023-01-19T17:34:30.629Z,2.41
2023-01-19T17:37:02.238Z,2.48
2023-01-19T17:39:29.504Z,2.54
2023-01-19T17:41:56.635Z,2.58
2023-01-19T17:44:23.575Z,2.55
2023-01-19T17:46:50.618Z,2.55
2023-01-19T17:49:17.546Z,2.57
2023-01-19T17:51:44.930Z,2.62
2023-01-19T17:54:13.500Z,2.67
2023-01-19T17:56:40.827Z,2.67
2023-01-19T17:59:07.943Z,2.70
2023-01-19T18:01:40.035Z,2.73
2023-01-19T18:04:08.344Z,2.76
2023-01-19T18:06:36.339Z,2.77
2023-01-19T18:09:04.496Z,2.78
2023-01-19T18:11:31.843Z,2.83
2023-01-19T18:14:00.162Z,2.88
2023-01-19T18:16:28.816Z,2.91
2023-01-19T18:18:56.532Z,2.93
2023-01-19T18:21:26.720Z,2.96
2023-01-19T18:24:00.797Z,2.98
2023-01-19T18:26:29.087Z,3.00
2023-01-19T18:28:56.739Z,3.03
2023-01-19T18:31:25.061Z,3.05
2023-01-19T18:33:52.072Z,3.08
2023-01-19T18:36:19.925Z,3.08
2023-01-19T18:38:47.305Z,3.07
2023-01-19T18:41:17.231Z,3.04
2023-01-19T18:43:44.963Z,3.05
2023-01-19T18:46:12.972Z,3.06
2023-01-19T18:48:40.093Z,3.09
2023-01-19T18:51:08.874Z,3.11
2023-01-19T18:53:36.736Z,3.12
2023-01-19T18:56:04.195Z,3.13
2023-01-19T18:58:32.544Z,3.16
2023-01-19T19:01:00.679Z,3.19
2023-01-19T19:03:28.414Z,3.20
2023-01-19T19:05:56.061Z,3.20
2023-01-19T19:08:23.018Z,3.19
2023-01-19T19:10:49.783Z,3.18
2023-01-19T19:13:17.244Z,3.18
2023-01-19T19:15:44.367Z,3.17
2023-01-19T19:18:13.274Z,3.16
2023-01-19T19:20:42.433Z,3.17
2023-01-19T19:23:11.102Z,3.16
2023-01-19T19:25:38.231Z,3.18
2023-01-19T19:28:05.332Z,3.20
2023-01-19T19:30:34.032Z,3.23
2023-01-19T19:33:00.888Z,3.24
2023-01-19T19:35:37.728Z,3.27
2023-01-19T19:38:04.691Z,3.28
2023-01-19T19:40:31.731Z,3.29
2023-01-19T19:42:58.946Z,3.29
2023-01-19T19:45:26.365Z,3.29
2023-01-19T19:47:53.443Z,3.27
2023-01-19T19:50:20.167Z,3.26
2023-01-19T19:52:46.965Z,3.26
2023-01-19T19:55:13.752Z,3.23
2023-01-19T19:57:40.963Z,3.23
2023-01-19T20:00:08.517Z,3.24
2023-01-19T20:02:38.077Z,3.24
2023-01-19T20:05:05.681Z,3.23
2023-01-19T20:07:32.925Z,3.23
2023-01-19T20:09:59.900Z,3.22
2023-01-19T20:12:30.495Z,3.21
2023-01-19T20:15:20.696Z,3.23
2023-01-19T20:17:47.839Z,3.24
2023-01-19T20:20:15.231Z,3.26
2023-01-19T20:23:06.627Z,3.28
2023-01-19T20:25:38.481Z,3.28
2023-01-19T20:28:05.831Z,3.26
2023-01-19T20:30:32.887Z,3.24
2023-01-19T20:33:00.101Z,3.20
2023-01-19T20:35:28.117Z,3.16
2023-01-19T20:37:55.144Z,3.15
2023-01-19T20:40:40.832Z,3.11
2023-01-19T20:43:08.387Z,3.07
2023-01-19T20:45:35.357Z,3.01
2023-01-19T20:48:02.346Z,3.02
2023-01-19T20:50:29.324Z,3.01
2023-01-19T20:52:55.996Z,2.99
2023-01-19T20:55:22.784Z,2.99
2023-01-19T20:57:49.750Z,2.99
2023-01-19T21:00:17.011Z,2.96
2023-01-19T21:02:48.736Z,2.93
2023-01-19T21:05:17.421Z,2.90
2023-01-19T21:07:44.817Z,2.86
2023-01-19T21:10:11.641Z,2.83
2023-01-19T21:12:57.120Z,2.82
2023-01-19T21:15:24.003Z,2.83
2023-01-19T21:17:51.011Z,2.85
2023-01-19T21:20:18.802Z,2.83
2023-01-19T21:22:46.232Z,2.83
2023-01-19T21:25:32.020Z,2.83
2023-01-19T21:27:59.091Z,2.80
2023-01-19T21:30:26.158Z,2.75
2023-01-19T21:32:54.389Z,2.70
2023-01-19T21:35:21.353Z,2.67
2023-01-19T21:37:48.169Z,2.64
2023-01-19T21:40:15.103Z,2.59
2023-01-19T21:42:41.870Z,2.57
2023-01-19T21:45:09.133Z,2.57
2023-01-19T21:47:36.428Z,2.58
2023-01-19T21:50:04.203Z,2.57
2023-01-19T21:52:30.970Z,2.57
2023-01-19T21:54:58.012Z,2.59
2023-01-19T21:57:24.719Z,2.57
2023-01-19T21:59:51.600Z,2.56
2023-01-19T22:02:33.359Z,2.55
2023-01-19T22:05:10.061Z,2.50
2023-01-19T22:07:37.210Z,2.46
2023-01-19T22:10:05.184Z,2.41
2023-01-19T22:12:32.128Z,2.36
2023-01-19T22:15:01.780Z,2.32
2023-01-19T22:17:28.446Z,2.30
2023-01-19T22:19:55.417Z,2.29
2023-01-19T22:22:22.533Z,2.30
2023-01-19T22:24:50.133Z,2.30
2023-01-19T22:27:17.277Z,2.32
2023-01-19T22:29:44.169Z,2.31
2023-01-19T22:32:10.844Z,2.32
2023-01-19T22:34:37.496Z,2.29
2023-01-19T22:37:05.766Z,2.25
2023-01-19T22:39:33.951Z,2.22
2023-01-19T22:42:00.694Z,2.20
2023-01-19T22:44:27.450Z,2.16
2023-01-19T22:46:55.293Z,2.12
2023-01-19T22:49:22.351Z,2.08
2023-01-19T22:52:12.755Z,2.05
2023-01-19T22:54:39.405Z,2.01
2023-01-19T22:57:07.582Z,1.97
2023-01-19T22:59:34.493Z,1.97
2023-01-19T23:02:01.400Z,1.96
2023-01-19T23:04:28.281Z,1.95
2023-01-19T23:07:13.862Z,1.96
2023-01-19T23:09:40.597Z,1.94
2023-01-19T23:12:07.337Z,1.91
2023-01-19T23:14:35.614Z,1.91
2023-01-19T23:17:20.823Z,1.90
2023-01-19T23:19:47.488Z,1.92
2023-01-19T23:22:32.936Z,1.92
2023-01-19T23:24:59.953Z,1.95
2023-01-19T23:27:26.793Z,1.96
2023-01-19T23:29:53.492Z,1.99
2023-01-19T23:32:20.318Z,2.00
2023-01-19T23:34:47.321Z,2.01
2023-01-19T23:37:16.007Z,2.02
2023-01-19T23:40:01.585Z,2.00
2023-01-19T23:42:28.636Z,1.95
2023-01-19T23:45:14.304Z,1.90
2023-01-19T23:47:42.571Z,1.82
2023-01-19T23:50:10.111Z,1.77
2023-01-19T23:52:37.192Z,1.73
2023-01-19T23:55:04.888Z,1.71
2023-01-19T23:57:31.486Z,1.67
2023-01-19T23:59:58.241Z,1.65
